createdAt,value
2022-12-04T00:00:08.476Z,28.60
2022-12-04T00:01:08.508Z,29.80
2022-12-04T00:02:08.470Z,30.10
2022-12-04T00:03:08.477Z,27.70
2022-12-04T00:04:08.468Z,29.60
2022-12-04T00:05:08.452Z,27.40
2022-12-04T00:06:08.452Z,30.80
2022-12-04T00:07:08.378Z,28.50
2022-12-04T00:08:08.417Z,28.80
2022-12-04T00:09:08.397Z,29.90
2022-12-04T00:10:08.367Z,27.50
2022-12-04T00:11:08.383Z,31.90
2022-12-04T00:12:08.320Z,28.40
2022-12-04T00:13:08.319Z,29.00
2022-12-04T00:14:08.341Z,25.70
2022-12-04T00:15:25.612Z,26.80
2022-12-04T00:16:09.310Z,26.70
2022-12-04T00:17:08.326Z,29.40
2022-12-04T00:18:08.268Z,27.90
2022-12-04T00:19:08.265Z,27.70
2022-12-04T00:20:08.241Z,25.80
2022-12-04T00:21:08.239Z,29.10
2022-12-04T00:22:08.218Z,28.50
2022-12-04T00:23:08.248Z,26.50
2022-12-04T00:24:08.192Z,28.00
2022-12-04T00:25:08.172Z,27.10
2022-12-04T00:26:08.173Z,29.70
2022-12-04T00:27:08.178Z,27.20
2022-12-04T00:28:08.154Z,27.30
2022-12-04T00:29:08.191Z,26.50
2022-12-04T00:30:08.135Z,28.40
2022-12-04T00:31:08.145Z,28.30
2022-12-04T00:32:08.204Z,26.50
2022-12-04T00:33:08.119Z,28.40
2022-12-04T00:34:08.449Z,28.30
2022-12-04T00:35:08.058Z,31.90
2022-12-04T00:36:08.072Z,30.30
2022-12-04T00:37:08.057Z,29.30
2022-12-04T00:38:08.044Z,33.80
2022-12-04T00:39:08.058Z,30.20
2022-12-04T00:40:08.034Z,30.60
2022-12-04T00:41:08.082Z,29.50
2022-12-04T00:42:08.015Z,31.20
2022-12-04T00:43:07.990Z,29.90
2022-12-04T00:44:07.996Z,31.90
2022-12-04T00:45:08.004Z,29.10
2022-12-04T00:46:08.041Z,31.70
2022-12-04T00:47:07.938Z,28.40
2022-12-04T00:48:07.921Z,32.70
2022-12-04T00:49:07.921Z,30.30
2022-12-04T00:50:07.949Z,29.90
2022-12-04T00:51:07.894Z,28.30
2022-12-04T00:52:07.871Z,27.30
2022-12-04T00:53:07.856Z,29.30
2022-12-04T00:54:07.861Z,30.10
2022-12-04T00:55:07.866Z,27.10
2022-12-04T00:56:07.824Z,26.20
2022-12-04T00:57:07.828Z,26.50
2022-12-04T00:58:08.027Z,24.90
2022-12-04T00:59:07.791Z,26.80
2022-12-04T01:00:07.794Z,25.10
2022-12-04T01:01:07.886Z,27.00
2022-12-04T01:02:07.806Z,26.80
2022-12-04T01:03:07.920Z,27.00
2022-12-04T01:04:07.753Z,28.70
2022-12-04T01:05:07.732Z,26.40
2022-12-04T01:06:07.750Z,26.90
2022-12-04T01:07:07.745Z,27.90
2022-12-04T01:08:07.851Z,27.90
2022-12-04T01:09:07.747Z,32.10
2022-12-04T01:10:07.667Z,31.90
2022-12-04T01:11:07.669Z,31.00
2022-12-04T01:12:07.667Z,29.80
2022-12-04T01:13:07.684Z,29.40
2022-12-04T01:14:07.626Z,28.40
2022-12-04T01:15:07.620Z,28.90
2022-12-04T01:16:07.731Z,30.70
2022-12-04T01:17:07.632Z,27.30
2022-12-04T01:18:07.623Z,28.80
2022-12-04T01:19:07.567Z,28.90
2022-12-04T01:20:07.596Z,27.50
2022-12-04T01:21:07.556Z,27.90
2022-12-04T01:22:07.560Z,30.70
2022-12-04T01:23:07.536Z,29.90
2022-12-04T01:24:07.546Z,30.70
2022-12-04T01:25:07.509Z,33.20
2022-12-04T01:26:07.492Z,27.20
2022-12-04T01:27:07.473Z,31.00
2022-12-04T01:28:07.489Z,28.10
2022-12-04T01:29:07.476Z,31.90
2022-12-04T01:30:07.496Z,32.20
2022-12-04T01:31:07.430Z,29.90
2022-12-04T01:32:07.465Z,31.90
2022-12-04T01:33:07.419Z,29.80
2022-12-04T01:34:07.410Z,31.40
2022-12-04T01:35:07.417Z,33.00
2022-12-04T01:36:07.422Z,27.80
2022-12-04T01:37:07.425Z,29.80
2022-12-04T01:38:07.390Z,30.50
2022-12-04T01:39:07.349Z,30.80
2022-12-04T01:40:07.351Z,28.10
2022-12-04T01:41:07.363Z,26.40
2022-12-04T01:42:07.306Z,26.30
2022-12-04T01:43:07.324Z,27.40
2022-12-04T01:44:07.283Z,28.10
2022-12-04T01:45:07.297Z,30.00
2022-12-04T01:46:07.432Z,27.30
2022-12-04T01:47:07.256Z,25.90
2022-12-04T01:48:07.402Z,28.20
2022-12-04T01:49:07.284Z,28.00
2022-12-04T01:50:07.272Z,27.20
2022-12-04T01:51:07.217Z,26.50
2022-12-04T01:52:07.238Z,29.30
2022-12-04T01:53:07.180Z,28.10
2022-12-04T01:54:07.198Z,26.50
2022-12-04T01:55:07.164Z,28.00
2022-12-04T01:56:07.166Z,25.90
2022-12-04T01:57:07.214Z,26.10
2022-12-04T01:58:07.167Z,28.00
2022-12-04T01:59:07.115Z,26.00
2022-12-04T02:00:07.107Z,28.60
2022-12-04T02:01:09.094Z,27.50
2022-12-04T02:02:07.239Z,27.20
2022-12-04T02:03:07.161Z,27.70
2022-12-04T02:04:07.102Z,27.90
2022-12-04T02:05:07.061Z,29.30
2022-12-04T02:06:07.059Z,30.50
2022-12-04T02:07:07.052Z,32.20
2022-12-04T02:08:07.116Z,33.70
2022-12-04T02:09:07.034Z,29.90
2022-12-04T02:10:07.012Z,30.20
2022-12-04T02:11:07.084Z,32.90
2022-12-04T02:12:07.015Z,33.00
2022-12-04T02:13:07.002Z,31.50
2022-12-04T02:14:06.968Z,32.50
2022-12-04T02:15:06.937Z,30.50
2022-12-04T02:16:06.993Z,30.30
2022-12-04T02:17:06.994Z,32.70
2022-12-04T02:18:06.956Z,33.40
2022-12-04T02:19:06.905Z,33.80
2022-12-04T02:20:06.901Z,32.30
2022-12-04T02:21:06.866Z,29.60
2022-12-04T02:22:06.919Z,31.10
2022-12-04T02:23:06.872Z,28.50
2022-12-04T02:24:06.865Z,29.00
2022-12-04T02:25:06.835Z,29.70
2022-12-04T02:26:06.870Z,27.30
2022-12-04T02:27:06.799Z,27.90
2022-12-04T02:28:06.869Z,29.10
2022-12-04T02:29:06.779Z,28.20
2022-12-04T02:30:06.803Z,27.70
2022-12-04T02:31:06.900Z,27.20
2022-12-04T02:32:06.782Z,29.10
2022-12-04T02:33:06.733Z,27.10
2022-12-04T02:34:06.740Z,28.30
2022-12-04T02:35:06.735Z,29.50
2022-12-04T02:36:06.753Z,28.60
2022-12-04T02:37:06.724Z,29.10
2022-12-04T02:38:06.724Z,28.10
2022-12-04T02:39:06.666Z,29.80
2022-12-04T02:40:06.669Z,32.70
2022-12-04T02:41:06.680Z,29.70
2022-12-04T02:42:06.681Z,33.00
2022-12-04T02:43:06.651Z,34.00
2022-12-04T02:44:06.668Z,32.20
2022-12-04T02:45:06.596Z,36.50
2022-12-04T02:46:06.657Z,34.60
2022-12-04T02:47:06.586Z,37.00
2022-12-04T02:48:06.622Z,31.40
2022-12-04T02:49:06.594Z,32.20
2022-12-04T02:50:06.541Z,37.80
2022-12-04T02:51:06.590Z,36.40
2022-12-04T02:52:06.549Z,35.60
2022-12-04T02:53:06.533Z,35.50
2022-12-04T02:54:06.533Z,37.60
2022-12-04T02:55:08.589Z,34.00
2022-12-04T02:56:06.473Z,33.70
2022-12-04T02:57:06.485Z,33.30
2022-12-04T02:58:06.479Z,31.30
2022-12-04T02:59:06.467Z,30.60
2022-12-04T03:00:06.464Z,30.40
2022-12-04T03:01:06.477Z,29.60
2022-12-04T03:02:06.500Z,31.40
2022-12-04T03:03:06.418Z,31.80
2022-12-04T03:04:06.397Z,31.20
2022-12-04T03:05:06.428Z,30.20
2022-12-04T03:06:06.442Z,32.00
2022-12-04T03:07:06.351Z,34.50
2022-12-04T03:08:06.405Z,32.20
2022-12-04T03:09:06.331Z,28.20
2022-12-04T03:10:06.328Z,31.60
2022-12-04T03:11:06.346Z,32.50
2022-12-04T03:12:06.338Z,35.30
2022-12-04T03:13:06.285Z,33.00
2022-12-04T03:14:06.306Z,34.60
2022-12-04T03:15:06.292Z,31.30
2022-12-04T03:16:06.296Z,35.70
2022-12-04T03:17:06.363Z,38.00
2022-12-04T03:18:06.235Z,30.90
2022-12-04T03:19:06.217Z,35.20
2022-12-04T03:20:07.054Z,38.80
2022-12-04T03:21:06.209Z,38.70
2022-12-04T03:22:06.238Z,36.80
2022-12-04T03:23:06.176Z,38.60
2022-12-04T03:24:06.191Z,35.20
2022-12-04T03:25:06.155Z,32.30
2022-12-04T03:26:06.168Z,40.30
2022-12-04T03:27:06.150Z,39.20
2022-12-04T03:28:06.155Z,45.30
2022-12-04T03:29:06.151Z,40.00
2022-12-04T03:30:06.117Z,43.60
2022-12-04T03:31:06.158Z,41.90
2022-12-04T03:32:06.112Z,44.70
2022-12-04T03:33:06.073Z,40.10
2022-12-04T03:34:06.094Z,38.10
2022-12-04T03:35:06.038Z,41.10
2022-12-04T03:36:06.032Z,46.80
2022-12-04T03:37:06.067Z,41.40
2022-12-04T03:38:06.015Z,46.90
2022-12-04T03:39:06.016Z,45.40
2022-12-04T03:40:06.028Z,42.50
2022-12-04T03:41:06.027Z,42.70
2022-12-04T03:42:06.043Z,43.90
2022-12-04T03:43:05.949Z,39.10
2022-12-04T03:44:05.955Z,44.70
2022-12-04T03:45:05.966Z,49.30
2022-12-04T03:46:06.092Z,44.90
2022-12-04T03:47:05.903Z,42.50
2022-12-04T03:48:05.904Z,36.60
2022-12-04T03:49:05.939Z,35.50
2022-12-04T03:50:05.882Z,37.00
2022-12-04T03:51:05.894Z,40.30
2022-12-04T03:52:05.848Z,40.20
2022-12-04T03:53:05.871Z,37.10
2022-12-04T03:54:05.847Z,35.80
2022-12-04T03:55:05.831Z,38.90
2022-12-04T03:56:05.841Z,40.80
2022-12-04T03:57:05.827Z,40.20
2022-12-04T03:58:05.847Z,37.70
2022-12-04T03:59:05.784Z,39.00
2022-12-04T04:00:05.761Z,39.40
2022-12-04T04:01:05.835Z,43.20
2022-12-04T04:02:06.054Z,49.70
2022-12-04T04:03:05.996Z,47.60
2022-12-04T04:04:05.728Z,38.60
2022-12-04T04:05:05.714Z,43.80
2022-12-04T04:06:05.702Z,43.90
2022-12-04T04:07:05.728Z,44.00
2022-12-04T04:08:05.716Z,49.20
2022-12-04T04:09:05.658Z,39.20
2022-12-04T04:10:05.651Z,48.40
2022-12-04T04:11:05.652Z,40.10
2022-12-04T04:12:05.668Z,41.10
2022-12-04T04:13:05.630Z,42.20
2022-12-04T04:14:05.638Z,38.70
2022-12-04T04:15:05.590Z,39.40
2022-12-04T04:16:05.737Z,36.80
2022-12-04T04:17:05.568Z,39.30
2022-12-04T04:18:05.596Z,41.20
2022-12-04T04:19:05.587Z,37.90
2022-12-04T04:20:05.577Z,36.90
2022-12-04T04:21:05.582Z,36.30
2022-12-04T04:22:05.522Z,38.10
2022-12-04T04:23:05.508Z,42.10
2022-12-04T04:24:05.519Z,44.90
2022-12-04T04:25:05.519Z,43.30
2022-12-04T04:26:06.036Z,36.10
2022-12-04T04:27:05.459Z,39.30
2022-12-04T04:28:05.479Z,38.70
2022-12-04T04:29:05.477Z,40.60
2022-12-04T04:30:05.477Z,39.00
2022-12-04T04:31:05.488Z,43.40
2022-12-04T04:32:05.400Z,38.50
2022-12-04T04:33:05.392Z,36.30
2022-12-04T04:34:05.406Z,38.10
2022-12-04T04:35:05.417Z,37.50
2022-12-04T04:36:05.378Z,35.00
2022-12-04T04:37:05.351Z,38.20
2022-12-04T04:38:05.338Z,33.50
2022-12-04T04:39:05.347Z,35.20
2022-12-04T04:40:05.312Z,36.40
2022-12-04T04:41:05.327Z,33.70
2022-12-04T04:42:05.319Z,34.80
2022-12-04T04:43:05.281Z,35.80
2022-12-04T04:44:05.330Z,34.20
2022-12-04T04:45:05.274Z,34.50
2022-12-04T04:46:05.333Z,35.70
2022-12-04T04:47:05.263Z,36.40
2022-12-04T04:48:05.273Z,43.00
2022-12-04T04:49:05.227Z,41.00
2022-12-04T04:50:05.224Z,37.50
2022-12-04T04:51:05.190Z,37.70
2022-12-04T04:52:05.221Z,35.50
2022-12-04T04:53:05.200Z,35.80
2022-12-04T04:54:05.174Z,34.00
2022-12-04T04:55:05.159Z,34.70
2022-12-04T04:56:05.141Z,37.40
2022-12-04T04:57:05.149Z,33.60
2022-12-04T04:58:05.152Z,32.10
2022-12-04T04:59:05.140Z,31.80
2022-12-04T05:00:05.092Z,30.30
2022-12-04T05:01:05.099Z,31.50
2022-12-04T05:02:05.186Z,36.10
2022-12-04T05:03:05.189Z,36.60
2022-12-04T05:04:05.071Z,39.00
2022-12-04T05:05:05.081Z,38.10
2022-12-04T05:06:05.075Z,39.40
2022-12-04T05:07:05.047Z,38.90
2022-12-04T05:08:05.093Z,39.10
2022-12-04T05:09:05.003Z,37.40
2022-12-04T05:10:05.008Z,35.50
2022-12-04T05:11:05.019Z,42.70
2022-12-04T05:12:05.013Z,45.10
2022-12-04T05:13:04.950Z,47.70
2022-12-04T05:14:04.961Z,48.80
2022-12-04T05:15:04.963Z,46.30
2022-12-04T05:16:05.992Z,40.40
2022-12-04T05:17:10.758Z,45.00
2022-12-04T05:18:05.916Z,41.20
2022-12-04T05:19:04.892Z,47.20
2022-12-04T05:20:04.875Z,41.80
2022-12-04T05:21:04.881Z,39.30
2022-12-04T05:22:04.876Z,40.10
2022-12-04T05:23:04.885Z,40.00
2022-12-04T05:24:04.820Z,42.70
2022-12-04T05:25:04.834Z,47.00
2022-12-04T05:26:04.812Z,41.20
2022-12-04T05:27:04.821Z,40.90
2022-12-04T05:28:04.819Z,38.30
2022-12-04T05:29:04.765Z,41.00
2022-12-04T05:30:04.831Z,39.80
2022-12-04T05:31:04.860Z,39.20
2022-12-04T05:32:04.750Z,52.20
2022-12-04T05:33:04.765Z,56.70
2022-12-04T05:34:04.707Z,53.90
2022-12-04T05:35:10.630Z,47.10
2022-12-04T05:36:05.699Z,44.20
2022-12-04T05:37:04.684Z,39.70
2022-12-04T05:38:04.745Z,35.20
2022-12-04T05:39:04.696Z,47.10
2022-12-04T05:40:04.644Z,37.30
2022-12-04T05:41:04.654Z,35.10
2022-12-04T05:42:04.624Z,33.40
2022-12-04T05:43:04.623Z,35.50
2022-12-04T05:44:04.627Z,36.20
2022-12-04T05:45:04.641Z,32.80
2022-12-04T05:46:04.575Z,37.80
2022-12-04T05:47:04.640Z,45.90
2022-12-04T05:48:05.577Z,50.80
2022-12-04T05:49:04.564Z,42.60
2022-12-04T05:50:04.568Z,40.10
2022-12-04T05:51:04.581Z,38.50
2022-12-04T05:52:04.505Z,37.70
2022-12-04T05:53:04.512Z,41.30
2022-12-04T05:54:04.543Z,37.00
2022-12-04T05:55:04.497Z,36.70
2022-12-04T05:56:04.510Z,44.90
2022-12-04T05:57:04.500Z,52.40
2022-12-04T05:58:04.468Z,60.00
2022-12-04T05:59:04.435Z,58.40
2022-12-04T06:00:04.437Z,46.20
2022-12-04T06:01:04.438Z,43.10
2022-12-04T06:02:04.538Z,43.60
2022-12-04T06:03:04.422Z,42.50
2022-12-04T06:04:04.379Z,42.00
2022-12-04T06:05:04.392Z,38.90
2022-12-04T06:06:04.371Z,39.10
2022-12-04T06:07:04.378Z,40.00
2022-12-04T06:08:04.365Z,42.90
2022-12-04T06:09:04.389Z,56.00
2022-12-04T06:10:04.341Z,39.20
2022-12-04T06:11:04.305Z,38.50
2022-12-04T06:12:04.341Z,35.70
2022-12-04T06:13:04.310Z,33.70
2022-12-04T06:14:04.259Z,36.70
2022-12-04T06:15:04.256Z,32.40
2022-12-04T06:16:04.282Z,31.20
2022-12-04T06:17:04.276Z,30.90
2022-12-04T06:18:04.383Z,33.10
2022-12-04T06:19:04.211Z,32.40
2022-12-04T06:20:09.575Z,33.30
2022-12-04T06:21:05.273Z,33.80
2022-12-04T06:22:04.200Z,30.20
2022-12-04T06:23:04.216Z,31.60
2022-12-04T06:24:04.178Z,31.40
2022-12-04T06:25:04.139Z,30.90
2022-12-04T06:26:07.090Z,30.00
2022-12-04T06:27:26.722Z,31.80
2022-12-04T06:28:05.137Z,29.30
2022-12-04T06:29:04.120Z,28.60
2022-12-04T06:30:05.046Z,29.50
2022-12-04T06:31:04.071Z,29.70
2022-12-04T06:32:04.204Z,28.00
2022-12-04T06:33:04.069Z,30.10
2022-12-04T06:34:04.056Z,33.70
2022-12-04T06:35:04.058Z,39.50
2022-12-04T06:36:04.022Z,44.40
2022-12-04T06:37:04.060Z,45.60
2022-12-04T06:38:04.000Z,43.10
2022-12-04T06:39:04.013Z,48.40
2022-12-04T06:40:04.022Z,53.10
2022-12-04T06:41:04.098Z,52.00
2022-12-04T06:42:03.969Z,64.70
2022-12-04T06:43:03.935Z,55.20
2022-12-04T06:44:04.007Z,47.60
2022-12-04T06:45:03.954Z,37.80
2022-12-04T06:46:04.034Z,36.20
2022-12-04T06:47:03.935Z,30.60
2022-12-04T06:48:03.880Z,33.00
2022-12-04T06:49:03.873Z,32.30
2022-12-04T06:50:04.102Z,31.00
2022-12-04T06:51:03.866Z,46.50
2022-12-04T06:52:03.909Z,47.50
2022-12-04T06:53:08.293Z,40.80
2022-12-04T06:54:03.815Z,35.80
2022-12-04T06:55:03.834Z,34.60
2022-12-04T06:56:03.828Z,32.00
2022-12-04T06:57:03.799Z,34.70
2022-12-04T06:58:03.826Z,33.90
2022-12-04T06:59:03.765Z,37.80
2022-12-04T07:00:03.761Z,39.30
2022-12-04T07:01:04.122Z,32.40
2022-12-04T07:02:03.803Z,33.20
2022-12-04T07:03:03.769Z,35.20
2022-12-04T07:04:03.783Z,40.00
2022-12-04T07:05:03.693Z,45.40
2022-12-04T07:06:03.682Z,39.30
2022-12-04T07:07:03.689Z,39.80
2022-12-04T07:08:03.756Z,36.90
2022-12-04T07:09:03.683Z,41.40
2022-12-04T07:10:03.687Z,36.80
2022-12-04T07:11:03.626Z,37.30
2022-12-04T07:12:03.619Z,36.00
2022-12-04T07:13:03.623Z,39.20
2022-12-04T07:14:03.663Z,36.30
2022-12-04T07:15:03.623Z,39.40
2022-12-04T07:16:03.664Z,36.90
2022-12-04T07:17:03.628Z,36.30
2022-12-04T07:18:03.583Z,33.70
2022-12-04T07:19:03.579Z,33.70
2022-12-04T07:20:03.551Z,35.50
2022-12-04T07:21:03.554Z,34.50
2022-12-04T07:22:03.558Z,34.00
2022-12-04T07:23:07.211Z,34.20
2022-12-04T07:24:03.508Z,38.70
2022-12-04T07:25:03.514Z,36.50
2022-12-04T07:26:03.489Z,39.30
2022-12-04T07:27:03.456Z,37.10
2022-12-04T07:28:03.458Z,39.30
2022-12-04T07:29:03.427Z,47.00
2022-12-04T07:30:03.636Z,42.50
2022-12-04T07:31:03.415Z,45.60
2022-12-04T07:32:03.640Z,44.20
2022-12-04T07:33:03.379Z,44.50
2022-12-04T07:34:03.381Z,46.00
2022-12-04T07:35:03.396Z,47.30
2022-12-04T07:36:03.370Z,43.50
2022-12-04T07:37:03.385Z,39.00
2022-12-04T07:38:03.366Z,40.80
2022-12-04T07:39:03.367Z,43.90
2022-12-04T07:40:03.312Z,42.90
2022-12-04T07:41:03.305Z,38.70
2022-12-04T07:42:03.301Z,38.80
2022-12-04T07:43:03.295Z,48.30
2022-12-04T07:44:03.299Z,41.70
2022-12-04T07:45:03.258Z,37.00
2022-12-04T07:46:03.366Z,35.70
2022-12-04T07:47:03.322Z,36.10
2022-12-04T07:48:03.228Z,36.20
2022-12-04T07:49:03.228Z,39.00
2022-12-04T07:50:03.194Z,41.90
2022-12-04T07:51:03.177Z,37.60
2022-12-04T07:52:03.196Z,37.60
2022-12-04T07:53:03.159Z,36.60
2022-12-04T07:54:04.442Z,36.00
2022-12-04T07:55:03.170Z,35.50
2022-12-04T07:56:03.124Z,35.00
2022-12-04T07:57:03.135Z,34.30
2022-12-04T07:58:03.139Z,34.90
2022-12-04T07:59:03.127Z,33.40
2022-12-04T08:00:03.149Z,32.60
2022-12-04T08:01:03.161Z,33.20
2022-12-04T08:02:03.084Z,31.20
2022-12-04T08:03:03.049Z,31.20
2022-12-04T08:04:03.256Z,30.90
2022-12-04T08:05:03.105Z,34.70
2022-12-04T08:06:03.044Z,39.90
2022-12-04T08:07:03.078Z,34.20
2022-12-04T08:08:11.654Z,33.40
2022-12-04T08:09:09.251Z,31.00
2022-12-04T08:10:03.990Z,31.60
2022-12-04T08:11:02.980Z,31.50
2022-12-04T08:12:02.992Z,33.10
2022-12-04T08:13:02.934Z,32.00
2022-12-04T08:14:02.946Z,30.20
2022-12-04T08:15:02.934Z,30.20
2022-12-04T08:16:02.947Z,29.40
2022-12-04T08:17:02.964Z,27.90
2022-12-04T08:18:02.953Z,26.30
2022-12-04T08:19:02.866Z,27.20
2022-12-04T08:20:02.880Z,28.00
2022-12-04T08:21:02.953Z,28.10
2022-12-04T08:22:02.850Z,26.60
2022-12-04T08:23:02.856Z,27.90
2022-12-04T08:24:02.836Z,29.10
2022-12-04T08:25:02.805Z,27.30
2022-12-04T08:26:02.819Z,28.40
2022-12-04T08:27:02.823Z,26.80
2022-12-04T08:28:02.788Z,28.60
2022-12-04T08:29:02.823Z,26.60
2022-12-04T08:30:02.745Z,26.00
2022-12-04T08:31:02.860Z,28.90
2022-12-04T08:32:03.163Z,27.10
2022-12-04T08:33:03.163Z,27.90
2022-12-04T08:34:02.757Z,26.50
2022-12-04T08:35:02.762Z,27.90
2022-12-04T08:36:02.723Z,27.70
2022-12-04T08:37:02.739Z,30.00
2022-12-04T08:38:02.685Z,27.00
2022-12-04T08:39:02.661Z,29.90
2022-12-04T08:40:02.666Z,30.20
2022-12-04T08:41:02.621Z,28.90
2022-12-04T08:42:02.662Z,29.10
2022-12-04T08:43:02.623Z,28.90
2022-12-04T08:44:02.617Z,27.80
2022-12-04T08:45:02.592Z,28.80
2022-12-04T08:46:02.681Z,28.30
2022-12-04T08:47:02.602Z,28.40
2022-12-04T08:48:02.542Z,27.50
2022-12-04T08:49:02.546Z,27.30
2022-12-04T08:50:02.564Z,26.90
2022-12-04T08:51:02.541Z,28.20
2022-12-04T08:52:02.552Z,27.90
2022-12-04T08:53:02.503Z,29.90
2022-12-04T08:54:02.477Z,25.80
2022-12-04T08:55:02.660Z,29.50
2022-12-04T08:56:02.480Z,29.40
2022-12-04T08:57:02.512Z,29.70
2022-12-04T08:58:02.429Z,30.90
2022-12-04T08:59:02.417Z,30.00
2022-12-04T09:00:02.508Z,27.80
2022-12-04T09:01:02.457Z,27.80
2022-12-04T09:02:02.491Z,28.00
2022-12-04T09:03:02.420Z,33.10
2022-12-04T09:04:02.407Z,30.70
2022-12-04T09:05:02.349Z,30.90
2022-12-04T09:06:02.470Z,27.90
2022-12-04T09:07:02.352Z,30.40
2022-12-04T09:08:02.510Z,28.30
2022-12-04T09:09:02.347Z,29.50
2022-12-04T09:10:02.301Z,28.90
2022-12-04T09:11:02.285Z,32.90
2022-12-04T09:12:02.297Z,30.60
2022-12-04T09:13:02.321Z,28.80
2022-12-04T09:14:02.270Z,30.00
2022-12-04T09:15:02.315Z,29.30
2022-12-04T09:16:02.327Z,28.00
2022-12-04T09:17:02.241Z,26.50
2022-12-04T09:18:02.246Z,29.00
2022-12-04T09:19:02.226Z,28.00
2022-12-04T09:20:02.547Z,27.10
2022-12-04T09:21:02.198Z,24.20
2022-12-04T09:22:02.188Z,25.00
2022-12-04T09:23:04.419Z,26.70
2022-12-04T09:24:02.180Z,29.60
2022-12-04T09:25:02.195Z,30.30
2022-12-04T09:26:02.158Z,28.10
2022-12-04T09:27:02.225Z,27.90
2022-12-04T09:28:02.098Z,27.80
2022-12-04T09:29:02.100Z,30.00
2022-12-04T09:30:02.133Z,29.20
2022-12-04T09:31:02.170Z,31.30
2022-12-04T09:32:02.122Z,31.30
2022-12-04T09:33:02.039Z,29.90
2022-12-04T09:34:02.041Z,33.10
2022-12-04T09:35:02.041Z,31.40
2022-12-04T09:36:02.041Z,32.10
2022-12-04T09:37:02.089Z,32.30
2022-12-04T09:38:02.058Z,33.30
2022-12-04T09:39:01.973Z,32.00
2022-12-04T09:40:01.986Z,27.90
2022-12-04T09:41:01.961Z,28.20
2022-12-04T09:42:02.011Z,31.30
2022-12-04T09:43:01.975Z,30.10
2022-12-04T09:44:01.973Z,28.90
2022-12-04T09:45:01.920Z,28.50
2022-12-04T09:46:01.939Z,29.40
2022-12-04T09:47:02.124Z,27.20
2022-12-04T09:48:01.915Z,26.30
2022-12-04T09:49:01.905Z,28.30
2022-12-04T09:50:01.852Z,25.50
2022-12-04T09:51:01.850Z,27.30
2022-12-04T09:52:01.943Z,28.70
2022-12-04T09:53:01.871Z,30.30
2022-12-04T09:54:01.876Z,31.40
2022-12-04T09:55:01.797Z,32.30
2022-12-04T09:56:01.787Z,30.90
2022-12-04T09:57:01.977Z,33.90
2022-12-04T09:58:02.588Z,33.70
2022-12-04T09:59:01.791Z,33.40
2022-12-04T10:00:01.884Z,32.10
2022-12-04T10:01:01.727Z,32.40
2022-12-04T10:02:01.719Z,32.10
2022-12-04T10:03:01.833Z,29.90
2022-12-04T10:04:06.051Z,31.00
2022-12-04T10:05:01.732Z,34.30
2022-12-04T10:06:01.673Z,35.00
2022-12-04T10:07:01.660Z,33.90
2022-12-04T10:08:01.747Z,34.20
2022-12-04T10:09:01.652Z,33.90
2022-12-04T10:10:01.685Z,31.90
2022-12-04T10:11:01.659Z,30.30
2022-12-04T10:12:01.604Z,30.70
2022-12-04T10:13:01.595Z,31.30
2022-12-04T10:14:01.618Z,33.70
2022-12-04T10:15:01.600Z,29.50
2022-12-04T10:16:01.655Z,29.30
2022-12-04T10:17:01.591Z,28.20
2022-12-04T10:18:01.552Z,27.40
2022-12-04T10:19:01.622Z,26.10
2022-12-04T10:20:01.528Z,25.80
2022-12-04T10:21:01.536Z,26.70
2022-12-04T10:22:01.539Z,25.30
2022-12-04T10:23:01.480Z,27.30
2022-12-04T10:24:01.472Z,26.80
2022-12-04T10:25:01.466Z,25.80
2022-12-04T10:26:01.498Z,26.10
2022-12-04T10:27:01.451Z,26.80
2022-12-04T10:28:01.493Z,26.20
2022-12-04T10:29:01.412Z,26.00
2022-12-04T10:30:01.403Z,27.60
2022-12-04T10:31:01.457Z,27.50
2022-12-04T10:32:01.434Z,31.90
2022-12-04T10:33:01.389Z,30.20
2022-12-04T10:34:01.395Z,29.70
2022-12-04T10:35:01.361Z,28.00
2022-12-04T10:36:01.360Z,24.60
2022-12-04T10:37:01.337Z,25.30
2022-12-04T10:38:01.356Z,25.70
2022-12-04T10:39:01.373Z,26.50
2022-12-04T10:40:01.292Z,26.60
2022-12-04T10:41:01.278Z,27.80
2022-12-04T10:42:01.293Z,29.10
2022-12-04T10:43:01.286Z,26.80
2022-12-04T10:44:01.284Z,27.30
2022-12-04T10:45:01.271Z,26.80
2022-12-04T10:46:01.284Z,29.90
2022-12-04T10:47:01.298Z,28.60
2022-12-04T10:48:01.294Z,27.60
2022-12-04T10:49:01.234Z,28.00
2022-12-04T10:50:01.197Z,25.80
2022-12-04T10:51:01.193Z,29.20
2022-12-04T10:52:01.216Z,28.70
2022-12-04T10:53:01.149Z,28.60
2022-12-04T10:54:01.154Z,28.00
2022-12-04T10:55:01.131Z,28.80
2022-12-04T10:56:01.170Z,27.50
2022-12-04T10:57:01.150Z,26.60
2022-12-04T10:58:01.127Z,28.10
2022-12-04T10:59:01.076Z,29.30
2022-12-04T11:00:01.094Z,27.70
2022-12-04T11:01:01.084Z,26.90
2022-12-04T11:02:06.327Z,27.40
2022-12-04T11:03:02.135Z,26.90
2022-12-04T11:04:01.027Z,27.30
2022-12-04T11:05:01.021Z,26.00
2022-12-04T11:06:01.035Z,26.50
2022-12-04T11:07:01.039Z,27.20
2022-12-04T11:08:01.141Z,28.00
2022-12-04T11:09:00.975Z,26.90
2022-12-04T11:10:00.957Z,26.70
2022-12-04T11:11:01.168Z,26.20
2022-12-04T11:12:00.972Z,28.10
2022-12-04T11:13:00.946Z,28.20
2022-12-04T11:14:00.972Z,27.70
2022-12-04T11:15:00.899Z,28.90
2022-12-04T11:16:01.050Z,28.80
2022-12-04T11:17:00.905Z,28.00
2022-12-04T11:18:00.882Z,28.00
2022-12-04T11:19:00.885Z,28.70
2022-12-04T11:20:00.851Z,30.10
2022-12-04T11:21:00.858Z,31.00
2022-12-04T11:22:00.846Z,29.40
2022-12-04T11:23:00.817Z,30.70
2022-12-04T11:24:00.820Z,28.20
2022-12-04T11:25:00.827Z,29.20
2022-12-04T11:26:05.970Z,28.00
2022-12-04T11:27:01.804Z,28.00
2022-12-04T11:28:00.762Z,27.40
2022-12-04T11:29:00.748Z,28.10
2022-12-04T11:30:00.770Z,27.70
2022-12-04T11:31:00.828Z,26.20
2022-12-04T11:32:07.148Z,27.90
2022-12-04T11:33:01.736Z,27.10
2022-12-04T11:34:00.711Z,28.30
2022-12-04T11:35:00.688Z,27.30
2022-12-04T11:36:00.714Z,27.50
2022-12-04T11:37:00.655Z,28.00
2022-12-04T11:38:00.649Z,25.90
2022-12-04T11:39:00.644Z,27.70
2022-12-04T11:40:00.645Z,25.90
2022-12-04T11:41:00.659Z,26.60
2022-12-04T11:42:00.637Z,27.10
2022-12-04T11:43:00.588Z,27.90
2022-12-04T11:44:01.093Z,28.00
2022-12-04T11:45:00.568Z,27.90
2022-12-04T11:46:00.605Z,27.60
2022-12-04T11:47:00.684Z,26.60
2022-12-04T11:48:00.569Z,24.70
2022-12-04T11:49:00.523Z,26.60
2022-12-04T11:50:00.929Z,25.60
2022-12-04T11:51:00.526Z,26.30
2022-12-04T11:52:00.518Z,27.40
2022-12-04T11:53:00.494Z,28.30
2022-12-04T11:54:00.466Z,28.30
2022-12-04T11:55:00.454Z,27.00
2022-12-04T11:56:00.520Z,27.60
2022-12-04T11:57:00.469Z,28.00
2022-12-04T11:58:00.434Z,24.80
2022-12-04T11:59:00.431Z,27.50
2022-12-04T12:00:00.449Z,25.80
2022-12-04T12:01:00.399Z,28.60
2022-12-04T12:02:00.585Z,29.20
2022-12-04T12:03:00.524Z,26.30
2022-12-04T12:04:00.373Z,28.90
2022-12-04T12:05:00.396Z,26.80
2022-12-04T12:06:00.330Z,27.10
2022-12-04T12:07:00.336Z,27.80
2022-12-04T12:08:02.921Z,26.10
2022-12-04T12:09:00.320Z,27.50
2022-12-04T12:10:00.329Z,25.90
2022-12-04T12:11:00.277Z,25.20
2022-12-04T12:12:00.265Z,24.80
2022-12-04T12:13:00.263Z,25.00
2022-12-04T12:14:00.279Z,25.20
2022-12-04T12:15:00.261Z,25.20
2022-12-04T12:16:00.274Z,25.60
2022-12-04T12:17:00.669Z,25.10
2022-12-04T12:18:00.232Z,26.70
2022-12-04T12:19:00.208Z,25.90
2022-12-04T12:20:00.232Z,27.30
2022-12-04T12:21:00.200Z,25.50
2022-12-04T12:22:05.149Z,26.30
2022-12-04T12:23:01.167Z,26.60
2022-12-04T12:24:01.125Z,25.50
2022-12-04T12:25:00.147Z,28.20
2022-12-04T12:26:00.632Z,28.10
2022-12-04T12:27:00.640Z,28.50
2022-12-04T12:28:00.194Z,26.80
2022-12-04T12:29:00.158Z,27.60
2022-12-04T12:30:00.172Z,27.60
2022-12-04T12:31:05.593Z,27.60
2022-12-04T12:32:01.160Z,28.30
2022-12-04T12:33:00.196Z,26.80
2022-12-04T12:34:00.041Z,31.50
2022-12-04T12:35:00.020Z,27.60
2022-12-04T12:36:00.023Z,29.20
2022-12-04T12:38:01.007Z,29.20
2022-12-04T12:39:00.024Z,26.70
2022-12-04T12:40:00.155Z,29.80
2022-12-04T12:40:59.942Z,27.40
2022-12-04T12:41:59.940Z,25.60
2022-12-04T12:42:59.961Z,27.80
2022-12-04T12:43:59.920Z,29.10
2022-12-04T12:44:59.980Z,30.90
2022-12-04T12:45:59.961Z,27.70
2022-12-04T12:46:59.887Z,27.70
2022-12-04T12:47:59.884Z,28.20
2022-12-04T12:48:59.867Z,26.40
2022-12-04T12:49:59.901Z,27.70
2022-12-04T12:51:22.095Z,29.00
2022-12-04T12:52:00.849Z,29.00
2022-12-04T12:52:59.815Z,29.30